createdAt,value
2018-09-27T00:02:54.116Z,97156.00
2018-09-27T00:08:23.406Z,97160.00
2018-09-27T00:13:52.605Z,97164.00
2018-09-27T00:19:22.019Z,97151.00
2018-09-27T00:24:51.281Z,97151.00
2018-09-27T00:30:20.556Z,97146.00
2018-09-27T00:35:49.864Z,97151.00
2018-09-27T00:41:19.284Z,97144.00
2018-09-27T00:46:49.652Z,97143.00
2018-09-27T00:52:19.026Z,97138.00
2018-09-27T00:57:48.435Z,97133.00
2018-09-27T01:03:17.887Z,97133.00
2018-09-27T01:08:47.333Z,97121.00
2018-09-27T01:14:16.824Z,97127.00
2018-09-27T01:19:46.111Z,97105.00
2018-09-27T01:25:15.581Z,97112.00
2018-09-27T01:30:44.929Z,97118.00
2018-09-27T01:36:14.367Z,97113.00
2018-09-27T01:41:43.640Z,97112.00
2018-09-27T01:47:13.040Z,97110.00
2018-09-27T01:52:42.265Z,97121.00
2018-09-27T01:58:12.064Z,97120.00
2018-09-27T02:03:41.362Z,97118.00
2018-09-27T02:09:10.870Z,97117.00
2018-09-27T02:14:40.121Z,97111.00
2018-09-27T02:20:09.396Z,97116.00
2018-09-27T02:25:38.615Z,97130.00
2018-09-27T02:31:07.982Z,97112.00
2018-09-27T02:36:37.271Z,97100.00
2018-09-27T02:42:07.289Z,97103.00
2018-09-27T02:47:36.611Z,97107.00
2018-09-27T02:53:05.798Z,97101.00
2018-09-27T02:58:35.064Z,97096.00
2018-09-27T03:04:04.369Z,97094.00
2018-09-27T03:09:34.393Z,97092.00
2018-09-27T03:15:04.405Z,97096.00
2018-09-27T03:20:33.661Z,97094.00
2018-09-27T03:26:02.893Z,97090.00
2018-09-27T03:31:33.344Z,97083.00
2018-09-27T03:37:02.640Z,97081.00
2018-09-27T03:42:31.879Z,97076.00
2018-09-27T03:48:04.599Z,97064.00
2018-09-27T03:53:34.005Z,97071.00
2018-09-27T03:59:03.824Z,97074.00
2018-09-27T04:04:34.101Z,97082.00
2018-09-27T04:10:03.431Z,97069.00
2018-09-27T04:15:33.715Z,97064.00
2018-09-27T04:21:03.989Z,97053.00
2018-09-27T04:26:34.043Z,97047.00
2018-09-27T04:32:04.021Z,97050.00
2018-09-27T04:37:34.213Z,97049.00
2018-09-27T04:43:03.719Z,97053.00
2018-09-27T04:48:34.104Z,97042.00
2018-09-27T04:54:03.367Z,97048.00
2018-09-27T04:59:32.769Z,97048.00
2018-09-27T05:05:02.389Z,97042.00
2018-09-27T05:10:31.752Z,97055.00
2018-09-27T05:16:01.083Z,97054.00
2018-09-27T05:21:30.485Z,97046.00
2018-09-27T05:26:59.788Z,97047.00
2018-09-27T05:32:29.155Z,97044.00
2018-09-27T05:37:58.488Z,97049.00
2018-09-27T05:43:27.821Z,97044.00
2018-09-27T05:49:02.248Z,97030.00
2018-09-27T05:54:31.556Z,97041.00
2018-09-27T06:00:00.909Z,97037.00
2018-09-27T06:05:30.211Z,97034.00
2018-09-27T06:10:59.578Z,97039.00
2018-09-27T06:16:28.924Z,97038.00
2018-09-27T06:21:58.282Z,97052.00
2018-09-27T06:27:27.624Z,97052.00
2018-09-27T06:32:56.910Z,97057.00
2018-09-27T06:38:26.299Z,97043.00
2018-09-27T06:43:55.620Z,97032.00
2018-09-27T06:49:26.073Z,97036.00
2018-09-27T06:54:55.540Z,97029.00
2018-09-27T07:00:25.018Z,97027.00
2018-09-27T07:06:02.060Z,97023.00
2018-09-27T07:11:31.411Z,97035.00
2018-09-27T07:17:00.776Z,97043.00
2018-09-27T07:22:30.091Z,97047.00
2018-09-27T07:27:59.468Z,97050.00
2018-09-27T07:33:28.831Z,97047.00
2018-09-27T07:38:58.138Z,97049.00
2018-09-27T07:44:27.583Z,97048.00
2018-09-27T07:49:56.849Z,97047.00
2018-09-27T07:55:26.393Z,97045.00
2018-09-27T08:00:55.684Z,97058.00
2018-09-27T08:06:25.050Z,97044.00
2018-09-27T08:11:54.442Z,97045.00
2018-09-27T08:17:23.754Z,97051.00
2018-09-27T08:22:53.069Z,97035.00
2018-09-27T08:28:22.414Z,97047.00
2018-09-27T08:33:51.815Z,97046.00
2018-09-27T08:39:21.164Z,97050.00
2018-09-27T08:44:50.816Z,97054.00
2018-09-27T08:50:20.064Z,97049.00
2018-09-27T08:55:49.568Z,97044.00
2018-09-27T09:01:19.073Z,97036.00
2018-09-27T09:06:48.532Z,97034.00
2018-09-27T09:12:18.020Z,97034.00
2018-09-27T09:17:47.468Z,97021.00
2018-09-27T09:23:16.900Z,97019.00
2018-09-27T09:28:46.312Z,97009.00
2018-09-27T09:34:15.706Z,96991.00
2018-09-27T09:39:45.059Z,96990.00
2018-09-27T09:45:14.456Z,96980.00
2018-09-27T09:50:43.969Z,96972.00
2018-09-27T09:56:13.425Z,96973.00
2018-09-27T10:01:49.727Z,96970.00
2018-09-27T10:07:19.108Z,96953.00
2018-09-27T10:12:48.796Z,96957.00
2018-09-27T10:18:18.423Z,96939.00
2018-09-27T10:23:47.812Z,96933.00
2018-09-27T10:29:17.179Z,96930.00
2018-09-27T10:34:46.718Z,96922.00
2018-09-27T10:40:16.029Z,96914.00
2018-09-27T10:45:45.360Z,96913.00
2018-09-27T10:51:14.617Z,96908.00
2018-09-27T10:56:44.584Z,96899.00
2018-09-27T11:02:13.920Z,96895.00
2018-09-27T11:07:43.380Z,96897.00
2018-09-27T11:13:12.665Z,96888.00
2018-09-27T11:18:41.881Z,96883.00
2018-09-27T11:24:11.141Z,96882.00
2018-09-27T11:29:45.639Z,96871.00
2018-09-27T11:35:15.050Z,96858.00
2018-09-27T11:40:44.380Z,96843.00
2018-09-27T11:46:13.700Z,96841.00
2018-09-27T11:51:42.929Z,96838.00
2018-09-27T11:57:12.237Z,96824.00
2018-09-27T12:02:41.496Z,96816.00
2018-09-27T12:08:10.689Z,96815.00
2018-09-27T12:13:42.363Z,96804.00
2018-09-27T12:19:11.645Z,96798.00
2018-09-27T12:24:40.823Z,96792.00
2018-09-27T12:30:10.075Z,96782.00
2018-09-27T12:35:39.316Z,96774.00
2018-09-27T12:41:08.516Z,96768.00
2018-09-27T12:46:37.761Z,96765.00
2018-09-27T12:52:07.162Z,96751.00
2018-09-27T12:57:36.225Z,96745.00
2018-09-27T13:03:06.660Z,96741.00
2018-09-27T13:08:36.365Z,96731.00
2018-09-27T13:14:05.595Z,96720.00
2018-09-27T13:19:34.896Z,96712.00
2018-09-27T13:25:04.133Z,96701.00
2018-09-27T13:30:33.346Z,96696.00
2018-09-27T13:36:02.688Z,96689.00
2018-09-27T13:41:31.934Z,96676.00
2018-09-27T13:47:01.209Z,96672.00
2018-09-27T13:52:30.467Z,96660.00
2018-09-27T13:57:59.805Z,96626.00
2018-09-27T14:03:29.184Z,96615.00
2018-09-27T14:08:58.501Z,96619.00
2018-09-27T14:14:27.906Z,96607.00
2018-09-27T14:19:57.128Z,96606.00
2018-09-27T14:25:26.392Z,96577.00
2018-09-27T14:30:55.912Z,96578.00
2018-09-27T14:36:25.225Z,96569.00
2018-09-27T14:41:55.197Z,96561.00
2018-09-27T14:47:29.190Z,96560.00
2018-09-27T14:52:58.777Z,96570.00
2018-09-27T14:58:31.365Z,96563.00
2018-09-27T15:04:02.642Z,96584.00
2018-09-27T15:09:32.453Z,96588.00
2018-09-27T15:15:05.701Z,96590.00
2018-09-27T15:20:35.238Z,96577.00
2018-09-27T15:26:05.692Z,96574.00
2018-09-27T15:31:35.824Z,96568.00
2018-09-27T15:37:05.262Z,96577.00
2018-09-27T15:42:39.058Z,96564.00
2018-09-27T15:48:08.984Z,96558.00
2018-09-27T15:53:38.214Z,96557.00
2018-09-27T15:59:07.582Z,96557.00
2018-09-27T16:04:36.856Z,96551.00
2018-09-27T16:10:06.505Z,96545.00
2018-09-27T16:15:35.896Z,96542.00
2018-09-27T16:21:05.326Z,96533.00
2018-09-27T16:26:34.646Z,96529.00
2018-09-27T16:32:03.915Z,96524.00
2018-09-27T16:37:33.521Z,96518.00
2018-09-27T16:43:03.876Z,96514.00
2018-09-27T16:48:33.101Z,96512.00
2018-09-27T16:54:02.439Z,96497.00
2018-09-27T16:59:31.692Z,96499.00
2018-09-27T17:05:02.493Z,96485.00
2018-09-27T17:10:31.797Z,96476.00
2018-09-27T17:16:01.011Z,96480.00
2018-09-27T17:21:30.389Z,96470.00
2018-09-27T17:26:59.614Z,96469.00
2018-09-27T17:32:29.312Z,96464.00
2018-09-27T17:37:58.753Z,96461.00
2018-09-27T17:43:30.304Z,96464.00
2018-09-27T17:48:59.661Z,96452.00
2018-09-27T17:54:29.563Z,96450.00
2018-09-27T17:59:58.957Z,96452.00
2018-09-27T18:05:28.810Z,96448.00
2018-09-27T18:10:58.276Z,96441.00
2018-09-27T18:16:28.019Z,96450.00
2018-09-27T18:21:57.377Z,96454.00
2018-09-27T18:27:28.662Z,96452.00
2018-09-27T18:32:58.070Z,96451.00
2018-09-27T18:38:27.473Z,96446.00
2018-09-27T18:43:56.851Z,96444.00
2018-09-27T18:49:29.382Z,96428.00
2018-09-27T18:54:58.708Z,96428.00
2018-09-27T19:00:28.305Z,96430.00
2018-09-27T19:05:57.539Z,96424.00
2018-09-27T19:11:27.912Z,96420.00
2018-09-27T19:16:57.271Z,96425.00
2018-09-27T19:22:26.590Z,96417.00
2018-09-27T19:27:56.051Z,96416.00
2018-09-27T19:33:25.985Z,96420.00
2018-09-27T19:38:55.365Z,96420.00
2018-09-27T19:44:24.747Z,96409.00
2018-09-27T19:49:55.145Z,96404.00
2018-09-27T19:55:24.505Z,96413.00
2018-09-27T20:00:53.819Z,96410.00
2018-09-27T20:06:23.133Z,96412.00
2018-09-27T20:11:54.460Z,96399.00
2018-09-27T20:17:24.690Z,96400.00
2018-09-27T20:22:54.102Z,96391.00
2018-09-27T20:28:23.549Z,96396.00
2018-09-27T20:33:53.934Z,96398.00
2018-09-27T20:39:23.184Z,96384.00
2018-09-27T20:44:52.715Z,96385.00
2018-09-27T20:50:22.443Z,96378.00
2018-09-27T20:55:51.766Z,96374.00
2018-09-27T21:01:21.091Z,96359.00
2018-09-27T21:06:50.476Z,96361.00
2018-09-27T21:12:19.925Z,96349.00
2018-09-27T21:17:49.279Z,96338.00
2018-09-27T21:23:18.675Z,96355.00
2018-09-27T21:28:48.037Z,96353.00
2018-09-27T21:34:17.535Z,96353.00
2018-09-27T21:39:47.901Z,96360.00
2018-09-27T21:45:18.202Z,96351.00
2018-09-27T21:50:47.710Z,96350.00
2018-09-27T21:56:17.028Z,96348.00
2018-09-27T22:01:46.349Z,96346.00
2018-09-27T22:07:16.013Z,96350.00
2018-09-27T22:12:45.697Z,96350.00
2018-09-27T22:18:15.196Z,96345.00
2018-09-27T22:23:44.607Z,96342.00
2018-09-27T22:29:13.860Z,96343.00
2018-09-27T22:34:44.594Z,96328.00
2018-09-27T22:40:13.946Z,96332.00
2018-09-27T22:45:44.526Z,96320.00
2018-09-27T22:51:13.934Z,96323.00
2018-09-27T22:56:43.208Z,96314.00
2018-09-27T23:02:12.580Z,96312.00
2018-09-27T23:07:42.093Z,96320.00
2018-09-27T23:13:11.311Z,96311.00
2018-09-27T23:18:40.620Z,96311.00
2018-09-27T23:24:09.928Z,96306.00
2018-09-27T23:29:39.149Z,96299.00
2018-09-27T23:35:08.504Z,96294.00
2018-09-27T23:40:37.725Z,96292.00
2018-09-27T23:46:08.480Z,96289.00
2018-09-27T23:51:37.808Z,96295.00
2018-09-27T23:57:07.045Z,96292.00
